createdAt,value
2019-04-21T00:00:12.790Z,182.77
2019-04-21T00:02:47.617Z,162.27
2019-04-21T00:05:40.215Z,157.12
2019-04-21T00:08:19.414Z,167.57
2019-04-21T00:10:40.059Z,159.60
2019-04-21T00:13:07.803Z,189.15
2019-04-21T00:15:33.548Z,209.87
2019-04-21T00:18:00.325Z,191.90
2019-04-21T00:20:41.275Z,179.18
2019-04-21T00:23:22.614Z,175.70
2019-04-21T00:25:49.934Z,198.68
2019-04-21T00:28:34.661Z,182.70
2019-04-21T00:30:57.014Z,167.18
2019-04-21T00:33:17.598Z,171.72
2019-04-21T00:35:49.889Z,178.63
2019-04-21T00:38:31.919Z,177.70
2019-04-21T00:41:00.416Z,185.22
2019-04-21T00:43:34.471Z,189.85
2019-04-21T00:45:57.816Z,204.70
2019-04-21T00:48:45.664Z,194.28
2019-04-21T00:51:33.318Z,172.98
2019-04-21T00:53:51.902Z,162.62
2019-04-21T00:56:28.839Z,161.90
2019-04-21T00:58:59.912Z,167.87
2019-04-21T01:01:26.762Z,160.23
2019-04-21T01:03:57.698Z,171.63
2019-04-21T01:06:35.207Z,159.47
2019-04-21T01:09:05.288Z,166.40
2019-04-21T01:11:38.982Z,177.43
2019-04-21T01:14:12.054Z,178.15
2019-04-21T01:16:57.737Z,189.60
2019-04-21T01:19:41.164Z,204.47
2019-04-21T01:22:01.844Z,181.73
2019-04-21T01:24:35.731Z,168.45
2019-04-21T01:27:10.085Z,174.66
2019-04-21T01:29:56.602Z,168.15
2019-04-21T01:32:29.277Z,183.15
2019-04-21T01:34:59.359Z,167.28
2019-04-21T01:37:39.916Z,182.57
2019-04-21T01:40:16.853Z,167.57
2019-04-21T01:42:43.571Z,159.07
2019-04-21T01:45:14.713Z,170.22
2019-04-21T01:47:46.249Z,164.67
2019-04-21T01:50:31.578Z,165.68
2019-04-21T01:53:02.016Z,165.18
2019-04-21T01:55:49.684Z,166.45
2019-04-21T01:58:15.337Z,168.60
2019-04-21T02:00:52.582Z,179.23
2019-04-21T02:03:41.713Z,190.03
2019-04-21T02:06:02.984Z,181.30
2019-04-21T02:08:27.528Z,166.95
2019-04-21T02:11:09.548Z,164.10
2019-04-21T02:13:35.196Z,166.60
2019-04-21T02:16:14.069Z,172.02
2019-04-21T02:18:42.447Z,184.20
2019-04-21T02:21:00.082Z,165.90
2019-04-21T02:23:46.378Z,160.93
2019-04-21T02:26:16.369Z,176.55
2019-04-21T02:28:50.022Z,162.82
2019-04-21T02:31:39.512Z,174.87
2019-04-21T02:36:32.819Z,162.72
2019-04-21T02:39:08.365Z,163.43
2019-04-21T02:44:00.162Z,173.60
2019-04-21T02:46:35.305Z,162.10
2019-04-21T02:49:13.049Z,158.40
2019-04-21T02:51:27.808Z,161.80
2019-04-21T02:56:37.896Z,149.80
2019-04-21T02:58:59.869Z,150.82
2019-04-21T03:01:50.528Z,157.90
2019-04-21T03:04:26.236Z,159.37
2019-04-21T03:07:07.190Z,156.43
2019-04-21T03:17:29.237Z,151.75
2019-04-21T03:22:25.041Z,164.13
2019-04-21T03:27:50.872Z,150.60
2019-04-21T03:35:32.790Z,152.60
2019-04-21T03:37:30.820Z,155.12
2019-04-21T03:39:59.799Z,161.80
2019-04-21T03:42:34.148Z,169.37
2019-04-21T03:45:06.697Z,141.68
2019-04-21T03:47:30.881Z,141.77
2019-04-21T03:50:12.801Z,149.93
2019-04-21T03:58:19.688Z,150.45
2019-04-21T04:01:02.839Z,171.83
2019-04-21T04:06:03.114Z,145.20
2019-04-21T04:16:20.108Z,152.47
2019-04-21T04:21:20.631Z,148.07
2019-04-21T04:23:58.053Z,155.90
2019-04-21T04:26:22.915Z,148.05
2019-04-21T04:28:54.591Z,156.57
2019-04-21T04:39:25.997Z,150.43
2019-04-21T04:47:20.584Z,138.80
2019-04-21T04:57:42.040Z,157.37
2019-04-21T05:00:03.472Z,153.45
2019-04-21T05:08:38.949Z,153.62
2019-04-21T05:09:52.322Z,165.12
2019-04-21T05:12:38.863Z,161.22
2019-04-21T05:17:48.242Z,160.90
2019-04-21T05:22:48.962Z,155.75
2019-04-21T05:25:03.478Z,155.15
2019-04-21T05:27:45.104Z,182.68
2019-04-21T05:30:24.850Z,157.07
2019-04-21T05:33:03.624Z,143.85
2019-04-21T05:35:49.326Z,157.25
2019-04-21T05:38:23.328Z,164.93
2019-04-21T05:40:48.364Z,161.00
2019-04-21T05:43:32.582Z,146.27
2019-04-21T05:46:21.338Z,160.78
2019-04-21T05:48:35.108Z,145.57
2019-04-21T05:50:59.157Z,140.65
2019-04-21T05:56:14.298Z,159.52
2019-04-21T05:58:37.843Z,151.15
2019-04-21T06:01:28.507Z,148.07
2019-04-21T06:04:03.622Z,132.80
2019-04-21T06:08:53.961Z,137.20
2019-04-21T06:11:28.973Z,140.00
2019-04-21T06:14:01.530Z,137.43
2019-04-21T06:16:40.701Z,134.33
2019-04-21T06:18:58.291Z,130.35
2019-04-21T06:21:28.174Z,137.62
2019-04-21T06:23:59.238Z,125.55
2019-04-21T06:26:51.821Z,141.10
2019-04-21T06:29:02.744Z,123.70
2019-04-21T06:32:09.380Z,121.22
2019-04-21T06:34:04.843Z,125.40
2019-04-21T06:39:30.477Z,121.47
2019-04-21T06:41:43.251Z,111.90
2019-04-21T06:46:39.315Z,124.33
2019-04-21T06:49:11.182Z,125.27
2019-04-21T06:51:46.844Z,121.28
2019-04-21T06:54:23.474Z,113.70
2019-04-21T06:56:51.530Z,127.97
2019-04-21T06:59:21.070Z,119.35
2019-04-21T07:01:56.708Z,116.88
2019-04-21T07:04:24.286Z,115.88
2019-04-21T07:06:56.243Z,123.85
2019-04-21T07:09:25.444Z,120.10
2019-04-21T07:11:51.510Z,114.20
2019-04-21T07:14:44.069Z,115.12
2019-04-21T07:17:05.085Z,115.42
2019-04-21T07:19:35.151Z,107.67
2019-04-21T07:21:57.367Z,102.60
2019-04-21T07:24:31.997Z,100.92
2019-04-21T07:27:02.602Z,105.70
2019-04-21T07:29:34.497Z,89.13
2019-04-21T07:34:36.005Z,79.32
2019-04-21T07:37:00.927Z,79.67
2019-04-21T07:39:29.889Z,80.30
2019-04-21T07:41:54.069Z,80.87
2019-04-21T07:44:31.923Z,80.75
2019-04-21T07:46:53.352Z,73.28
2019-04-21T07:49:53.718Z,68.45
2019-04-21T07:52:23.693Z,76.33
2019-04-21T07:55:07.936Z,87.22
2019-04-21T07:57:18.685Z,77.43
2019-04-21T08:00:06.561Z,71.42
2019-04-21T08:02:23.289Z,81.25
2019-04-21T08:07:30.808Z,65.63
2019-04-21T08:09:51.489Z,74.27
2019-04-21T08:12:19.732Z,65.83
2019-04-21T08:15:05.965Z,79.75
2019-04-21T08:17:24.507Z,68.00
2019-04-21T08:19:53.716Z,71.35
2019-04-21T08:22:25.938Z,70.87
2019-04-21T08:25:01.083Z,74.22
2019-04-21T08:27:25.804Z,66.05
2019-04-21T08:29:58.338Z,66.42
2019-04-21T08:32:38.562Z,67.75
2019-04-21T08:35:08.405Z,63.80
2019-04-21T08:37:24.156Z,60.03
2019-04-21T08:40:04.758Z,56.48
2019-04-21T08:42:26.698Z,59.42
2019-04-21T08:45:00.337Z,63.92
2019-04-21T08:47:25.627Z,54.65
2019-04-21T08:49:54.107Z,54.53
2019-04-21T08:52:36.906Z,50.43
2019-04-21T08:55:03.620Z,51.60
2019-04-21T08:57:47.615Z,47.38
2019-04-21T09:00:16.383Z,51.83
2019-04-21T09:05:04.720Z,45.03
2019-04-21T09:07:38.785Z,52.13
2019-04-21T09:10:06.334Z,47.38
2019-04-21T09:12:34.601Z,43.75
2019-04-21T09:15:08.596Z,43.35
2019-04-21T09:17:28.458Z,45.12
2019-04-21T09:20:13.793Z,41.02
2019-04-21T09:22:38.255Z,39.77
2019-04-21T09:25:14.556Z,38.33
2019-04-21T09:27:39.235Z,44.87
2019-04-21T09:29:53.970Z,41.02
2019-04-21T09:32:23.873Z,41.98
2019-04-21T09:34:51.292Z,35.80
2019-04-21T09:37:33.013Z,37.50
2019-04-21T09:39:52.425Z,32.03
2019-04-21T09:42:21.448Z,33.20
2019-04-21T09:44:55.236Z,29.63
2019-04-21T09:47:23.454Z,28.12
2019-04-21T09:49:49.801Z,28.73
2019-04-21T09:52:25.429Z,30.40
2019-04-21T09:54:58.577Z,28.12
2019-04-21T09:57:32.723Z,24.47
2019-04-21T10:00:02.444Z,29.02
2019-04-21T10:02:32.792Z,23.02
2019-04-21T10:04:50.936Z,21.90
2019-04-21T10:07:26.382Z,21.82
2019-04-21T10:09:50.012Z,22.60
2019-04-21T10:12:18.465Z,20.95
2019-04-21T10:14:47.364Z,21.37
2019-04-21T10:17:21.710Z,19.53
2019-04-21T10:19:50.704Z,23.10
2019-04-21T10:22:19.160Z,19.60
2019-04-21T10:24:48.714Z,20.60
2019-04-21T10:27:17.323Z,20.92
2019-04-21T10:29:47.227Z,18.37
2019-04-21T10:32:18.665Z,20.00
2019-04-21T10:34:47.400Z,17.67
2019-04-21T10:37:16.669Z,16.73
2019-04-21T10:39:45.347Z,17.92
2019-04-21T10:42:15.508Z,15.00
2019-04-21T10:44:45.038Z,16.15
2019-04-21T10:47:14.509Z,15.57
2019-04-21T10:49:42.923Z,15.95
2019-04-21T10:52:22.867Z,16.77
2019-04-21T10:55:12.880Z,16.42
2019-04-21T10:57:30.443Z,14.35
2019-04-21T10:59:59.881Z,15.35
2019-04-21T11:02:39.467Z,14.68
2019-04-21T11:05:09.064Z,13.13
2019-04-21T11:08:07.815Z,14.33
2019-04-21T11:10:25.658Z,15.77
2019-04-21T11:12:54.698Z,12.95
2019-04-21T11:15:23.390Z,13.03
2019-04-21T11:17:52.330Z,13.65
2019-04-21T11:20:21.057Z,15.25
2019-04-21T11:22:49.704Z,15.63
2019-04-21T11:25:18.074Z,13.17
2019-04-21T11:27:47.023Z,14.10
2019-04-21T11:30:17.980Z,14.93
2019-04-21T11:32:47.666Z,13.20
2019-04-21T11:35:17.134Z,15.25
2019-04-21T11:37:46.186Z,14.85
2019-04-21T11:40:17.839Z,15.00
2019-04-21T11:42:46.090Z,15.07
2019-04-21T11:45:24.357Z,15.38
2019-04-21T11:48:12.353Z,15.83
2019-04-21T11:50:41.384Z,15.48
2019-04-21T11:53:10.633Z,13.38
2019-04-21T11:55:43.220Z,16.93
2019-04-21T11:58:09.932Z,13.88
2019-04-21T12:00:39.822Z,12.60
2019-04-21T12:03:09.213Z,14.38
2019-04-21T12:05:37.632Z,15.60
2019-04-21T12:08:18.856Z,15.20
2019-04-21T12:10:37.641Z,16.25
2019-04-21T12:13:07.420Z,16.00
2019-04-21T12:15:36.779Z,16.83
2019-04-21T12:18:06.022Z,15.70
2019-04-21T12:20:35.540Z,13.50
2019-04-21T12:23:04.663Z,14.03
2019-04-21T12:25:40.863Z,13.43
2019-04-21T12:28:10.033Z,12.47
2019-04-21T12:30:39.875Z,14.63
2019-04-21T12:33:14.032Z,15.10
2019-04-21T12:35:43.813Z,15.03
2019-04-21T12:38:13.073Z,14.55
2019-04-21T12:40:42.298Z,15.00
2019-04-21T12:43:10.812Z,16.57
2019-04-21T12:45:39.981Z,15.10
2019-04-21T12:48:08.499Z,13.22
2019-04-21T12:50:36.912Z,12.70
2019-04-21T12:53:05.458Z,13.43
2019-04-21T12:55:37.465Z,12.47
2019-04-21T12:58:05.247Z,12.90
2019-04-21T13:00:34.944Z,11.33
2019-04-21T13:03:03.660Z,12.15
2019-04-21T13:05:33.679Z,11.97
2019-04-21T13:08:02.200Z,12.68
2019-04-21T13:10:31.859Z,12.33
2019-04-21T13:13:00.180Z,11.20
2019-04-21T13:15:29.336Z,11.65
2019-04-21T13:17:58.500Z,9.95
2019-04-21T13:20:27.447Z,10.75
2019-04-21T13:22:57.706Z,10.13
2019-04-21T13:25:27.735Z,9.47
2019-04-21T13:27:56.487Z,9.10
2019-04-21T13:30:24.820Z,7.65
2019-04-21T13:32:53.418Z,7.83
2019-04-21T13:35:23.269Z,9.10
2019-04-21T13:37:52.311Z,8.23
2019-04-21T13:40:45.025Z,8.45
2019-04-21T13:42:58.831Z,7.77
2019-04-21T13:45:25.967Z,9.53
2019-04-21T13:47:54.728Z,8.33
2019-04-21T13:50:23.664Z,7.65
2019-04-21T13:52:52.361Z,8.08
2019-04-21T13:55:21.340Z,8.40
2019-04-21T13:57:50.526Z,7.83
2019-04-21T14:00:19.421Z,7.97
2019-04-21T14:02:48.997Z,9.28
2019-04-21T14:05:18.156Z,8.15
2019-04-21T14:07:46.541Z,9.63
2019-04-21T14:10:16.127Z,8.68
2019-04-21T14:12:44.912Z,7.90
2019-04-21T14:15:14.514Z,10.23
2019-04-21T14:17:43.082Z,10.88
2019-04-21T14:20:11.443Z,10.37
2019-04-21T14:22:40.038Z,10.30
2019-04-21T14:25:09.825Z,11.97
2019-04-21T14:27:38.561Z,10.75
2019-04-21T14:30:10.299Z,10.70
2019-04-21T14:32:40.093Z,10.88
2019-04-21T14:35:09.131Z,11.78
2019-04-21T14:37:38.368Z,10.43
2019-04-21T14:40:13.640Z,11.85
2019-04-21T14:42:40.191Z,13.85
2019-04-21T14:45:10.238Z,13.05
2019-04-21T14:47:46.356Z,10.50
2019-04-21T14:50:26.285Z,12.13
2019-04-21T14:53:20.238Z,12.40
2019-04-21T14:55:51.107Z,12.17
2019-04-21T14:58:19.689Z,11.57
2019-04-21T15:00:55.712Z,11.95
2019-04-21T15:03:32.090Z,14.23
2019-04-21T15:06:01.095Z,13.90
2019-04-21T15:08:29.583Z,12.00
2019-04-21T15:11:01.133Z,12.90
2019-04-21T15:13:30.040Z,10.98
2019-04-21T15:15:58.521Z,12.05
2019-04-21T15:18:28.563Z,8.83
2019-04-21T15:20:57.414Z,12.50
2019-04-21T15:23:28.613Z,10.32
2019-04-21T15:25:57.935Z,10.28
2019-04-21T15:28:31.598Z,13.87
2019-04-21T15:30:56.698Z,13.15
2019-04-21T15:33:26.581Z,13.13
2019-04-21T15:35:55.443Z,12.00
2019-04-21T15:38:23.823Z,12.60
2019-04-21T15:40:57.065Z,15.03
2019-04-21T15:43:24.438Z,11.35
2019-04-21T15:45:57.033Z,10.98
2019-04-21T15:48:26.692Z,11.57
2019-04-21T15:50:56.676Z,10.93
2019-04-21T15:53:27.802Z,12.43
2019-04-21T15:55:59.128Z,9.93
2019-04-21T15:58:44.468Z,8.68
2019-04-21T16:01:24.846Z,11.38
2019-04-21T16:03:58.276Z,8.45
2019-04-21T16:06:27.723Z,8.83
2019-04-21T16:08:58.985Z,9.48
2019-04-21T16:11:26.203Z,9.63
2019-04-21T16:13:55.491Z,9.22
2019-04-21T16:16:30.105Z,13.88
2019-04-21T16:18:58.329Z,12.07
2019-04-21T16:21:29.529Z,13.48
2019-04-21T16:23:58.350Z,12.15
2019-04-21T16:26:30.798Z,11.63
2019-04-21T16:28:59.385Z,11.68
2019-04-21T16:31:28.096Z,11.00
2019-04-21T16:33:58.764Z,11.30
2019-04-21T16:36:27.497Z,10.75
2019-04-21T16:38:57.626Z,11.55
2019-04-21T16:41:28.666Z,9.40
2019-04-21T16:43:58.879Z,15.93
2019-04-21T16:46:27.552Z,13.08
2019-04-21T16:48:57.796Z,11.20
2019-04-21T16:51:28.376Z,12.37
2019-04-21T16:54:01.919Z,15.85
2019-04-21T16:56:33.015Z,13.38
2019-04-21T16:59:03.643Z,13.93
2019-04-21T17:01:38.467Z,9.88
2019-04-21T17:04:06.885Z,11.20
2019-04-21T17:06:38.256Z,9.85
2019-04-21T17:09:08.477Z,11.20
2019-04-21T17:11:38.055Z,11.40
2019-04-21T17:14:24.691Z,13.10
2019-04-21T17:16:57.582Z,11.78
2019-04-21T17:19:18.021Z,12.60
2019-04-21T17:21:41.641Z,10.30
2019-04-21T17:24:10.595Z,11.07
2019-04-21T17:26:41.121Z,9.95
2019-04-21T17:29:10.283Z,11.87
2019-04-21T17:31:39.259Z,13.58
2019-04-21T17:34:21.807Z,10.00
2019-04-21T17:36:50.953Z,8.78
2019-04-21T17:39:26.914Z,10.63
2019-04-21T17:42:13.010Z,12.33
2019-04-21T17:44:27.808Z,13.00
2019-04-21T17:47:05.277Z,10.90
2019-04-21T17:49:30.918Z,10.95
2019-04-21T17:52:16.285Z,12.93
2019-04-21T17:54:48.890Z,15.20
2019-04-21T17:57:36.608Z,10.15
2019-04-21T18:00:11.632Z,10.87
2019-04-21T18:02:42.921Z,12.93
2019-04-21T18:05:16.621Z,16.90
2019-04-21T18:10:07.622Z,13.85
2019-04-21T18:12:36.125Z,12.37
2019-04-21T18:15:02.635Z,14.93
2019-04-21T18:17:22.786Z,12.47
2019-04-21T18:19:53.621Z,12.15
2019-04-21T18:22:38.569Z,16.70
2019-04-21T18:25:13.817Z,12.85
2019-04-21T18:27:38.788Z,15.35
2019-04-21T18:30:46.831Z,13.70
2019-04-21T18:33:22.239Z,13.50
2019-04-21T18:36:06.236Z,19.82
2019-04-21T18:39:02.610Z,18.42
2019-04-21T18:41:13.468Z,16.42
2019-04-21T18:44:19.705Z,14.73
2019-04-21T18:46:40.007Z,20.95
2019-04-21T18:48:57.925Z,24.15
2019-04-21T18:51:39.251Z,18.57
2019-04-21T18:54:26.945Z,19.48
2019-04-21T18:56:33.814Z,19.12
2019-04-21T18:59:04.423Z,19.40
2019-04-21T19:01:35.191Z,20.64
2019-04-21T19:04:05.379Z,15.27
2019-04-21T19:06:56.150Z,16.90
2019-04-21T19:09:24.608Z,16.80
2019-04-21T19:11:59.581Z,22.00
2019-04-21T19:17:31.870Z,18.83
2019-04-21T19:22:04.908Z,16.55
2019-04-21T19:24:39.257Z,18.60
2019-04-21T19:27:11.940Z,20.10
2019-04-21T19:29:34.634Z,23.42
2019-04-21T19:32:08.902Z,22.42
2019-04-21T19:34:24.494Z,21.60
2019-04-21T19:36:57.614Z,21.17
2019-04-21T19:39:35.000Z,21.15
2019-04-21T19:42:00.758Z,23.98
2019-04-21T19:44:38.224Z,21.73
2019-04-21T19:47:11.570Z,22.55
2019-04-21T19:49:46.409Z,24.10
2019-04-21T19:51:59.594Z,31.80
2019-04-21T19:54:29.926Z,23.85
2019-04-21T19:56:51.411Z,20.37
2019-04-21T19:59:30.895Z,26.40
2019-04-21T20:01:51.332Z,28.17
2019-04-21T20:04:20.044Z,23.57
2019-04-21T20:07:01.030Z,25.37
2019-04-21T20:09:37.048Z,26.45
2019-04-21T20:12:03.620Z,30.95
2019-04-21T20:14:51.056Z,31.62
2019-04-21T20:17:00.582Z,27.83
2019-04-21T20:19:19.634Z,29.40
2019-04-21T20:21:51.149Z,33.30
2019-04-21T20:24:25.077Z,34.63
2019-04-21T20:26:59.974Z,31.23
2019-04-21T20:29:37.451Z,33.18
2019-04-21T20:32:16.013Z,35.20
2019-04-21T20:34:38.656Z,33.65
2019-04-21T20:37:09.583Z,30.82
2019-04-21T20:39:24.193Z,35.35
2019-04-21T20:42:11.386Z,37.88
2019-04-21T20:44:42.300Z,37.73
2019-04-21T20:47:03.845Z,42.17
2019-04-21T20:49:34.135Z,36.07
2019-04-21T20:52:14.094Z,37.50
2019-04-21T20:54:41.064Z,34.10
2019-04-21T20:57:11.250Z,33.42
2019-04-21T20:59:31.710Z,34.58
2019-04-21T21:02:10.133Z,33.55
2019-04-21T21:04:32.646Z,34.03
2019-04-21T21:07:16.270Z,32.15
2019-04-21T21:09:41.460Z,33.87
2019-04-21T21:12:22.331Z,32.38
2019-04-21T21:14:39.141Z,30.40
2019-04-21T21:17:13.214Z,29.35
2019-04-21T21:19:40.082Z,29.80
2019-04-21T21:22:05.978Z,30.20
2019-04-21T21:24:49.313Z,31.97
2019-04-21T21:27:09.778Z,31.30
2019-04-21T21:29:40.482Z,30.90
2019-04-21T21:32:16.227Z,28.90
2019-04-21T21:34:47.433Z,31.00
2019-04-21T21:37:21.252Z,31.40
2019-04-21T21:39:48.850Z,35.83
2019-04-21T21:41:58.624Z,34.10
2019-04-21T21:44:27.963Z,34.20
2019-04-21T21:47:06.550Z,31.90
2019-04-21T21:49:38.230Z,32.38
2019-04-21T21:52:04.402Z,33.37
2019-04-21T21:54:25.725Z,30.00
2019-04-21T21:56:54.566Z,30.43
2019-04-21T21:59:27.862Z,31.62
2019-04-21T22:01:54.879Z,24.60
2019-04-21T22:04:26.857Z,30.52
2019-04-21T22:06:58.269Z,29.10
2019-04-21T22:09:24.198Z,33.60
2019-04-21T22:11:57.912Z,25.60
2019-04-21T22:14:32.649Z,33.50
2019-04-21T22:17:11.078Z,26.07
2019-04-21T22:19:41.696Z,30.27
2019-04-21T22:22:13.966Z,36.95
2019-04-21T22:24:44.945Z,32.55
2019-04-21T22:26:54.859Z,36.80
2019-04-21T22:29:23.502Z,29.63
2019-04-21T22:31:59.735Z,41.05
2019-04-21T22:34:27.650Z,37.83
2019-04-21T22:37:01.396Z,34.30
2019-04-21T22:39:43.662Z,32.73
2019-04-21T22:42:01.859Z,36.48
2019-04-21T22:44:22.780Z,34.85
2019-04-21T22:47:02.162Z,35.73
2019-04-21T22:49:22.303Z,31.60
2019-04-21T22:51:52.455Z,27.62
2019-04-21T22:54:28.685Z,37.28
2019-04-21T22:57:01.593Z,40.40
2019-04-21T22:59:24.131Z,28.70
2019-04-21T23:01:54.351Z,33.73
2019-04-21T23:04:25.471Z,32.47
2019-04-21T23:06:59.330Z,39.30
2019-04-21T23:09:24.690Z,41.33
2019-04-21T23:11:56.222Z,37.85
2019-04-21T23:14:23.724Z,43.47
2019-04-21T23:16:54.247Z,43.05
2019-04-21T23:19:35.678Z,51.18
2019-04-21T23:22:09.611Z,41.95
2019-04-21T23:24:45.519Z,52.13
2019-04-21T23:27:06.379Z,64.60
2019-04-21T23:29:49.789Z,101.10
2019-04-21T23:32:09.529Z,100.27
2019-04-21T23:34:26.622Z,119.63
2019-04-21T23:37:00.653Z,111.17
2019-04-21T23:39:27.360Z,114.64
2019-04-21T23:41:55.380Z,87.82
2019-04-21T23:44:24.115Z,66.70
2019-04-21T23:46:57.568Z,92.05
2019-04-21T23:49:35.464Z,92.78
2019-04-21T23:52:00.488Z,98.03
2019-04-21T23:54:23.428Z,135.20
2019-04-21T23:56:52.068Z,143.67
2019-04-21T23:59:20.709Z,134.00
